createdAt,value
2023-05-14T00:00:38.254Z,100027.19
2023-05-14T00:02:39.798Z,100017.06
2023-05-14T00:04:41.596Z,100018.88
2023-05-14T00:06:43.229Z,100017.69
2023-05-14T00:08:44.836Z,100014.66
2023-05-14T00:10:46.374Z,100015.88
2023-05-14T00:12:48.066Z,100015.50
2023-05-14T00:14:49.599Z,100007.38
2023-05-14T00:16:51.100Z,100007.00
2023-05-14T00:18:52.689Z,100009.25
2023-05-14T00:20:55.014Z,100009.69
2023-05-14T00:22:56.658Z,100011.94
2023-05-14T00:24:58.171Z,100006.88
2023-05-14T00:26:59.738Z,100000.78
2023-05-14T00:29:01.385Z,100004.00
2023-05-14T00:31:02.962Z,99994.50
2023-05-14T00:33:04.535Z,99997.31
2023-05-14T00:35:06.559Z,99997.53
2023-05-14T00:37:08.169Z,100009.91
2023-05-14T00:39:10.099Z,100004.25
2023-05-14T00:41:12.168Z,100002.03
2023-05-14T00:43:13.637Z,100004.88
2023-05-14T00:45:15.422Z,99999.81
2023-05-14T00:47:16.962Z,100006.91
2023-05-14T00:49:18.733Z,100006.72
2023-05-14T00:51:20.536Z,99993.94
2023-05-14T00:53:22.383Z,99995.75
2023-05-14T00:55:23.975Z,99996.78
2023-05-14T00:57:25.548Z,99998.81
2023-05-14T00:59:27.091Z,100001.84
2023-05-14T01:01:34.136Z,99997.38
2023-05-14T01:03:36.194Z,99993.34
2023-05-14T01:06:01.114Z,99987.47
2023-05-14T01:10:52.913Z,99997.41
2023-05-14T01:13:04.415Z,99998.66
2023-05-14T01:15:09.251Z,99994.59
2023-05-14T01:17:13.311Z,99986.28
2023-05-14T01:19:37.737Z,99985.06
2023-05-14T01:21:42.794Z,99986.06
2023-05-14T01:23:44.304Z,99987.69
2023-05-14T01:25:45.952Z,99988.91
2023-05-14T01:27:53.533Z,99983.47
2023-05-14T01:30:31.096Z,99981.25
2023-05-14T01:32:33.711Z,99975.56
2023-05-14T01:34:37.643Z,99981.66
2023-05-14T01:36:41.129Z,99981.03
2023-05-14T01:38:45.770Z,99969.28
2023-05-14T01:40:48.770Z,99966.06
2023-05-14T01:42:51.987Z,99966.66
2023-05-14T01:44:54.227Z,99975.97
2023-05-14T01:46:55.854Z,99975.41
2023-05-14T01:48:57.380Z,99967.50
2023-05-14T01:50:58.947Z,99973.59
2023-05-14T01:53:00.529Z,99971.97
2023-05-14T01:55:02.070Z,99970.56
2023-05-14T01:57:03.725Z,99972.56
2023-05-14T01:59:05.334Z,99973.81
2023-05-14T02:01:06.927Z,99973.00
2023-05-14T02:03:08.469Z,99970.94
2023-05-14T02:05:11.641Z,99965.88
2023-05-14T02:07:13.248Z,99971.16
2023-05-14T02:09:14.825Z,99964.25
2023-05-14T02:11:16.385Z,99966.91
2023-05-14T02:13:17.924Z,99964.69
2023-05-14T02:20:11.705Z,99971.56
2023-05-14T02:22:13.475Z,99962.25
2023-05-14T02:24:15.121Z,99961.44
2023-05-14T02:26:16.699Z,99964.28
2023-05-14T02:28:18.232Z,99953.94
2023-05-14T02:30:21.721Z,99952.53
2023-05-14T02:32:23.515Z,99957.00
2023-05-14T02:34:25.477Z,99959.22
2023-05-14T02:36:29.928Z,99954.97
2023-05-14T02:38:31.484Z,99959.41
2023-05-14T02:40:33.034Z,99956.19
2023-05-14T02:42:35.346Z,99957.41
2023-05-14T02:44:37.061Z,99960.44
2023-05-14T02:46:38.594Z,99954.56
2023-05-14T02:48:40.220Z,99957.41
2023-05-14T02:50:41.740Z,99960.03
2023-05-14T02:52:43.315Z,99960.66
2023-05-14T02:54:44.837Z,99957.00
2023-05-14T02:56:47.136Z,99951.94
2023-05-14T02:58:48.623Z,99951.13
2023-05-14T03:00:50.321Z,99959.63
2023-05-14T03:02:52.503Z,99957.81
2023-05-14T03:04:54.509Z,99959.84
2023-05-14T03:06:56.096Z,99956.19
2023-05-14T03:08:57.603Z,99952.53
2023-05-14T03:10:59.152Z,99953.16
2023-05-14T03:13:00.715Z,99946.25
2023-05-14T03:15:02.249Z,99954.56
2023-05-14T03:17:04.096Z,99950.28
2023-05-14T03:19:05.795Z,99946.88
2023-05-14T03:21:09.047Z,99954.56
2023-05-14T03:23:10.657Z,99951.34
2023-05-14T03:25:12.267Z,99956.38
2023-05-14T03:27:13.807Z,99949.50
2023-05-14T03:29:18.066Z,99950.28
2023-05-14T03:31:19.830Z,99947.66
2023-05-14T03:33:21.788Z,99951.09
2023-05-14T03:35:23.386Z,99951.94
2023-05-14T03:37:24.934Z,99941.78
2023-05-14T03:39:26.459Z,99943.84
2023-05-14T03:41:27.969Z,99937.13
2023-05-14T03:43:29.534Z,99939.75
2023-05-14T03:45:32.391Z,99940.41
2023-05-14T03:47:33.947Z,99939.59
2023-05-14T03:49:35.464Z,99936.94
2023-05-14T03:51:37.012Z,99942.22
2023-05-14T03:53:38.548Z,99936.31
2023-05-14T03:55:40.220Z,99937.94
2023-05-14T03:57:41.609Z,99941.59
2023-05-14T03:59:43.334Z,99942.41
2023-05-14T04:01:44.903Z,99938.78
2023-05-14T04:03:46.590Z,99935.50
2023-05-14T04:05:48.169Z,99942.00
2023-05-14T04:07:49.809Z,99940.38
2023-05-14T04:09:51.383Z,99940.38
2023-05-14T04:11:52.917Z,99941.41
2023-05-14T04:13:54.538Z,99940.59
2023-05-14T04:15:56.101Z,99932.69
2023-05-14T04:17:57.778Z,99932.88
2023-05-14T04:19:59.398Z,99933.69
2023-05-14T04:22:00.908Z,99925.97
2023-05-14T04:24:02.447Z,99934.50
2023-05-14T04:26:05.006Z,99935.91
2023-05-14T04:28:06.576Z,99925.38
2023-05-14T04:30:08.839Z,99928.84
2023-05-14T04:32:10.595Z,99928.63
2023-05-14T04:34:12.243Z,99930.88
2023-05-14T04:36:14.028Z,99923.75
2023-05-14T04:38:15.620Z,99928.00
2023-05-14T04:40:17.339Z,99929.22
2023-05-14T04:42:18.906Z,99933.69
2023-05-14T04:44:20.450Z,99932.47
2023-05-14T04:46:22.414Z,99932.06
2023-05-14T04:48:23.993Z,99933.47
2023-05-14T04:50:25.822Z,99938.94
2023-05-14T04:52:27.608Z,99934.06
2023-05-14T04:54:29.366Z,99933.47
2023-05-14T04:56:30.943Z,99936.50
2023-05-14T04:58:34.628Z,99932.22
2023-05-14T05:00:37.040Z,99937.69
2023-05-14T05:02:38.666Z,99928.94
2023-05-14T05:04:40.375Z,99937.84
2023-05-14T05:06:41.925Z,99930.13
2023-05-14T05:08:43.504Z,99928.28
2023-05-14T05:10:45.003Z,99926.03
2023-05-14T05:12:46.526Z,99924.16
2023-05-14T05:14:48.046Z,99922.31
2023-05-14T05:16:49.603Z,99930.41
2023-05-14T05:18:51.323Z,99922.06
2023-05-14T05:20:52.932Z,99922.84
2023-05-14T05:22:54.436Z,99930.16
2023-05-14T05:24:56.025Z,99919.75
2023-05-14T05:26:57.516Z,99918.31
2023-05-14T05:28:59.431Z,99925.78
2023-05-14T05:31:01.044Z,99924.16
2023-05-14T05:33:02.588Z,99919.84
2023-05-14T05:35:04.535Z,99921.03
2023-05-14T05:37:06.236Z,99928.34
2023-05-14T05:39:07.859Z,99923.44
2023-05-14T05:41:09.347Z,99926.44
2023-05-14T05:43:10.945Z,99931.91
2023-05-14T05:45:12.570Z,99928.63
2023-05-14T05:47:14.093Z,99930.88
2023-05-14T05:49:15.574Z,99924.97
2023-05-14T05:51:17.120Z,99930.28
2023-05-14T05:53:18.733Z,99929.41
2023-05-14T05:55:20.352Z,99935.56
2023-05-14T05:57:25.677Z,99935.75
2023-05-14T05:59:27.903Z,99936.38
2023-05-14T06:01:29.514Z,99945.09
2023-05-14T06:03:31.025Z,99942.22
2023-05-14T06:05:32.705Z,99940.22
2023-05-14T06:07:34.476Z,99941.16
2023-05-14T06:09:35.986Z,99937.44
2023-05-14T06:11:37.479Z,99936.19
2023-05-14T06:13:39.009Z,99936.13
2023-05-14T06:15:41.958Z,99940.91
2023-05-14T06:17:43.564Z,99942.25
2023-05-14T06:19:45.411Z,99935.66
2023-05-14T06:21:46.938Z,99942.28
2023-05-14T06:23:48.495Z,99947.28
2023-05-14T06:25:50.969Z,99940.91
2023-05-14T06:27:52.533Z,99947.75
2023-05-14T06:29:54.054Z,99947.25
2023-05-14T06:32:03.814Z,99940.84
2023-05-14T06:34:06.634Z,99939.50
2023-05-14T06:36:08.541Z,99943.47
2023-05-14T06:38:10.036Z,99940.53
2023-05-14T06:40:12.927Z,99938.38
2023-05-14T06:42:14.470Z,99946.03
2023-05-14T06:44:19.457Z,99945.31
2023-05-14T06:46:21.306Z,99944.97
2023-05-14T06:48:23.060Z,99941.44
2023-05-14T06:50:25.100Z,99944.44
2023-05-14T06:52:26.977Z,99944.34
2023-05-14T06:54:28.498Z,99942.16
2023-05-14T06:56:32.714Z,99939.19
2023-05-14T06:58:34.217Z,99938.06
2023-05-14T07:00:35.761Z,99943.50
2023-05-14T07:02:37.336Z,99928.84
2023-05-14T07:04:38.956Z,99932.53
2023-05-14T07:06:40.780Z,99932.00
2023-05-14T07:08:45.906Z,99937.75
2023-05-14T07:10:47.429Z,99930.47
2023-05-14T07:12:49.460Z,99933.94
2023-05-14T07:14:51.282Z,99934.41
2023-05-14T07:16:52.863Z,99934.28
2023-05-14T07:18:54.443Z,99930.81
2023-05-14T07:20:55.976Z,99928.50
2023-05-14T07:22:57.518Z,99929.53
2023-05-14T07:24:59.035Z,99923.41
2023-05-14T07:27:01.876Z,99925.44
2023-05-14T07:29:03.476Z,99921.88
2023-05-14T07:31:08.952Z,99921.03
2023-05-14T07:33:10.826Z,99925.22
2023-05-14T07:35:12.477Z,99915.75
2023-05-14T07:37:14.033Z,99916.19
2023-05-14T07:39:15.712Z,99914.34
2023-05-14T07:41:17.332Z,99920.31
2023-05-14T07:43:18.835Z,99916.47
2023-05-14T07:45:20.364Z,99913.88
2023-05-14T07:47:21.910Z,99913.00
2023-05-14T07:49:23.452Z,99913.13
2023-05-14T07:51:28.187Z,99909.47
2023-05-14T07:53:29.748Z,99906.75
2023-05-14T07:55:31.455Z,99908.00
2023-05-14T07:57:32.988Z,99909.78
2023-05-14T07:59:34.718Z,99904.75
2023-05-14T08:01:39.193Z,99911.53
2023-05-14T08:03:41.142Z,99906.41
2023-05-14T08:05:42.748Z,99912.41
2023-05-14T08:07:44.602Z,99909.56
2023-05-14T08:09:46.156Z,99905.91
2023-05-14T08:11:47.655Z,99907.06
2023-05-14T08:13:49.165Z,99911.25
2023-05-14T08:15:51.297Z,99912.38
2023-05-14T08:17:52.900Z,99915.66
2023-05-14T08:19:54.497Z,99905.28
2023-05-14T08:21:56.040Z,99915.25
2023-05-14T08:23:57.770Z,99908.41
2023-05-14T08:25:59.842Z,99907.41
2023-05-14T08:28:01.846Z,99912.53
2023-05-14T08:30:04.127Z,99910.50
2023-05-14T08:32:19.318Z,99907.13
2023-05-14T08:34:24.680Z,99911.94
2023-05-14T08:36:26.880Z,99903.78
2023-05-14T08:38:28.391Z,99907.06
2023-05-14T08:40:30.271Z,99913.53
2023-05-14T08:42:32.376Z,99908.28
2023-05-14T08:44:44.659Z,99907.28
2023-05-14T08:46:46.942Z,99900.38
2023-05-14T08:48:58.364Z,99900.59
2023-05-14T08:51:00.750Z,99902.81
2023-05-14T08:53:02.301Z,99906.09
2023-05-14T08:55:05.599Z,99900.22
2023-05-14T08:57:10.354Z,99894.97
2023-05-14T08:59:12.784Z,99893.34
2023-05-14T09:01:14.341Z,99896.00
2023-05-14T09:03:16.402Z,99886.66
2023-05-14T09:05:19.258Z,99888.84
2023-05-14T09:07:20.897Z,99881.13
2023-05-14T09:09:23.143Z,99889.44
2023-05-14T09:11:24.744Z,99875.75
2023-05-14T09:13:28.230Z,99888.91
2023-05-14T09:15:31.585Z,99882.78
2023-05-14T09:17:33.833Z,99882.25
2023-05-14T09:19:35.513Z,99881.72
2023-05-14T09:21:37.333Z,99883.41
2023-05-14T09:23:42.465Z,99889.56
2023-05-14T09:25:44.038Z,99881.53
2023-05-14T09:27:50.133Z,99878.59
2023-05-14T09:29:51.930Z,99880.50
2023-05-14T09:31:54.929Z,99879.16
2023-05-14T09:33:56.590Z,99875.69
2023-05-14T09:36:02.017Z,99880.50
2023-05-14T09:38:03.612Z,99875.94
2023-05-14T09:40:08.938Z,99883.72
2023-05-14T09:42:10.659Z,99872.72
2023-05-14T09:44:12.191Z,99862.28
2023-05-14T09:46:13.693Z,99868.16
2023-05-14T09:48:15.883Z,99860.69
2023-05-14T09:50:17.423Z,99860.94
2023-05-14T09:52:19.838Z,99861.75
2023-05-14T09:54:21.404Z,99858.25
2023-05-14T09:56:23.623Z,99853.41
2023-05-14T09:58:25.250Z,99849.06
2023-05-14T10:00:26.963Z,99848.25
2023-05-14T10:02:37.484Z,99848.25
2023-05-14T10:04:39.704Z,99845.53
2023-05-14T10:06:44.035Z,99848.63
2023-05-14T10:08:48.615Z,99832.50
2023-05-14T10:10:51.808Z,99843.19
2023-05-14T10:12:58.376Z,99843.84
2023-05-14T10:15:06.856Z,99848.53
2023-05-14T10:17:18.060Z,99846.66
2023-05-14T10:19:23.707Z,99843.66
2023-05-14T10:21:29.544Z,99835.16
2023-05-14T10:23:31.233Z,99835.63
2023-05-14T10:25:33.087Z,99838.22
2023-05-14T10:27:34.685Z,99831.41
2023-05-14T10:29:38.024Z,99829.50
2023-05-14T10:31:56.562Z,99830.19
2023-05-14T10:33:59.797Z,99829.41
2023-05-14T10:36:04.180Z,99824.00
2023-05-14T10:38:08.770Z,99828.91
2023-05-14T10:40:10.571Z,99827.97
2023-05-14T10:42:15.521Z,99830.19
2023-05-14T10:44:17.436Z,99828.72
2023-05-14T10:46:19.266Z,99825.38
2023-05-14T10:48:21.434Z,99821.22
2023-05-14T10:50:23.741Z,99820.00
2023-05-14T10:52:26.407Z,99818.03
2023-05-14T10:54:28.690Z,99803.94
2023-05-14T10:56:30.345Z,99811.94
2023-05-14T10:58:35.128Z,99818.97
2023-05-14T11:00:37.613Z,99816.22
2023-05-14T11:02:42.063Z,99821.78
2023-05-14T11:04:52.371Z,99811.91
2023-05-14T11:06:55.415Z,99812.31
2023-05-14T11:08:58.554Z,99805.47
2023-05-14T11:11:00.456Z,99796.59
2023-05-14T11:13:02.602Z,99799.28
2023-05-14T11:15:07.257Z,99810.94
2023-05-14T11:17:09.070Z,99804.81
2023-05-14T11:19:11.244Z,99804.00
2023-05-14T11:21:13.122Z,99797.19
2023-05-14T11:23:14.850Z,99809.56
2023-05-14T11:25:17.799Z,99801.16
2023-05-14T11:27:21.502Z,99800.94
2023-05-14T11:29:23.033Z,99793.50
2023-05-14T11:31:25.601Z,99791.94
2023-05-14T11:33:27.814Z,99794.50
2023-05-14T11:35:31.663Z,99795.91
2023-05-14T11:37:33.190Z,99798.38
2023-05-14T11:39:38.571Z,99787.06
2023-05-14T11:41:45.091Z,99787.91
2023-05-14T11:43:46.633Z,99785.63
2023-05-14T11:45:52.677Z,99792.25
2023-05-14T11:47:57.055Z,99786.97
2023-05-14T11:50:00.512Z,99787.34
2023-05-14T11:52:05.230Z,99783.66
2023-05-14T11:54:06.710Z,99788.09
2023-05-14T11:56:09.809Z,99785.06
2023-05-14T11:58:12.690Z,99780.84
2023-05-14T12:00:16.872Z,99775.56
2023-05-14T12:02:22.890Z,99777.56
2023-05-14T12:04:24.996Z,99767.44
2023-05-14T12:06:32.270Z,99768.78
2023-05-14T12:08:34.039Z,99767.53
2023-05-14T12:10:42.540Z,99778.88
2023-05-14T12:12:47.269Z,99765.41
2023-05-14T12:14:49.982Z,99771.63
2023-05-14T12:16:51.845Z,99761.38
2023-05-14T12:18:53.523Z,99765.09
2023-05-14T12:20:55.618Z,99763.28
2023-05-14T12:22:57.184Z,99754.63
2023-05-14T12:25:00.270Z,99755.97
2023-05-14T12:27:04.074Z,99749.50
2023-05-14T12:29:08.748Z,99744.88
2023-05-14T12:31:10.419Z,99743.03
2023-05-14T12:33:12.088Z,99749.75
2023-05-14T12:35:13.646Z,99742.81
2023-05-14T12:37:15.138Z,99732.56
2023-05-14T12:39:16.832Z,99731.63
2023-05-14T12:41:18.693Z,99735.44
2023-05-14T12:43:20.655Z,99738.00
2023-05-14T12:45:22.323Z,99738.47
2023-05-14T12:47:24.220Z,99735.97
2023-05-14T12:49:26.010Z,99733.88
2023-05-14T12:51:27.621Z,99730.66
2023-05-14T12:53:29.153Z,99733.72
2023-05-14T12:55:30.778Z,99724.38
2023-05-14T12:57:32.409Z,99721.97
2023-05-14T12:59:33.984Z,99724.56
2023-05-14T13:01:35.686Z,99718.72
2023-05-14T13:03:37.360Z,99714.47
2023-05-14T13:05:38.956Z,99713.81
2023-05-14T13:07:40.636Z,99712.03
2023-05-14T13:09:42.153Z,99713.50
2023-05-14T13:11:43.651Z,99711.41
2023-05-14T13:13:45.318Z,99707.41
2023-05-14T13:15:46.983Z,99710.81
2023-05-14T13:17:49.089Z,99699.06
2023-05-14T13:19:50.620Z,99696.59
2023-05-14T13:21:52.144Z,99700.53
2023-05-14T13:23:53.755Z,99702.22
2023-05-14T13:25:55.303Z,99701.59
2023-05-14T13:27:56.839Z,99699.25
2023-05-14T13:29:58.355Z,99695.75
2023-05-14T13:31:59.960Z,99692.81
2023-05-14T13:34:02.547Z,99687.00
2023-05-14T13:36:04.655Z,99690.69
2023-05-14T13:38:06.190Z,99686.13
2023-05-14T13:40:08.378Z,99681.84
2023-05-14T13:42:09.947Z,99683.84
2023-05-14T13:44:11.578Z,99678.56
2023-05-14T13:46:13.120Z,99689.47
2023-05-14T13:48:14.715Z,99679.19
2023-05-14T13:50:16.429Z,99681.50
2023-05-14T13:52:17.953Z,99683.50
2023-05-14T13:54:19.480Z,99679.38
2023-05-14T13:56:21.558Z,99679.22
2023-05-14T13:58:24.520Z,99684.59
2023-05-14T14:00:27.144Z,99685.63
2023-05-14T14:02:28.662Z,99675.94
2023-05-14T14:04:30.614Z,99680.06
2023-05-14T14:06:32.821Z,99674.38
2023-05-14T14:08:34.337Z,99662.97
2023-05-14T14:10:36.563Z,99669.84
2023-05-14T14:12:38.251Z,99659.38
2023-05-14T14:14:39.787Z,99658.47
2023-05-14T14:16:41.365Z,99657.03
2023-05-14T14:18:43.396Z,99653.53
2023-05-14T14:20:45.095Z,99650.28
2023-05-14T14:22:46.986Z,99647.50
2023-05-14T14:24:48.502Z,99647.88
2023-05-14T14:26:50.046Z,99653.69
2023-05-14T14:28:51.562Z,99642.13
2023-05-14T14:30:53.202Z,99644.72
2023-05-14T14:32:54.937Z,99646.94
2023-05-14T14:34:56.544Z,99644.50
2023-05-14T14:36:58.084Z,99644.19
2023-05-14T14:38:59.663Z,99641.69
2023-05-14T14:41:03.219Z,99629.41
2023-05-14T14:43:04.844Z,99636.75
2023-05-14T14:45:07.410Z,99635.34
2023-05-14T14:47:08.956Z,99642.72
2023-05-14T14:49:10.531Z,99637.34
2023-05-14T14:51:12.152Z,99639.53
2023-05-14T14:53:20.075Z,99641.66
2023-05-14T14:55:21.867Z,99645.25
2023-05-14T14:57:23.532Z,99640.50
2023-05-14T14:59:25.108Z,99643.88
2023-05-14T15:01:26.706Z,99648.19
2023-05-14T15:03:28.958Z,99633.97
2023-05-14T15:05:30.765Z,99629.19
2023-05-14T15:07:33.088Z,99626.44
2023-05-14T15:09:34.738Z,99627.69
2023-05-14T15:11:37.545Z,99633.22
2023-05-14T15:13:40.940Z,99632.72
2023-05-14T15:15:42.847Z,99630.78
2023-05-14T15:17:44.420Z,99631.63
2023-05-14T15:19:46.066Z,99619.84
2023-05-14T15:21:47.636Z,99625.72
2023-05-14T15:23:49.165Z,99623.34
2023-05-14T15:25:50.740Z,99616.56
2023-05-14T15:27:52.305Z,99615.38
2023-05-14T15:29:53.835Z,99619.69
2023-05-14T15:31:55.452Z,99611.34
2023-05-14T15:33:57.117Z,99622.84
2023-05-14T15:35:58.638Z,99618.63
2023-05-14T15:38:00.168Z,99612.88
2023-05-14T15:40:01.729Z,99608.00
2023-05-14T15:42:03.591Z,99609.09
2023-05-14T15:44:05.335Z,99609.81
2023-05-14T15:46:06.895Z,99604.06
2023-05-14T15:48:08.443Z,99597.97
2023-05-14T15:50:10.036Z,99599.44
2023-05-14T15:52:11.727Z,99602.06
2023-05-14T15:54:13.309Z,99602.13
2023-05-14T15:56:15.005Z,99600.97
2023-05-14T15:58:16.638Z,99600.03
2023-05-14T16:00:18.654Z,99597.75
2023-05-14T16:02:20.220Z,99589.63
2023-05-14T16:04:21.804Z,99592.66
2023-05-14T16:06:23.385Z,99598.03
2023-05-14T16:08:24.961Z,99593.75
2023-05-14T16:10:26.759Z,99592.59
2023-05-14T16:12:28.516Z,99601.44
2023-05-14T16:14:30.092Z,99596.16
2023-05-14T16:16:31.689Z,99596.47
2023-05-14T16:18:33.842Z,99595.19
2023-05-14T16:20:35.424Z,99586.66
2023-05-14T16:22:36.982Z,99593.19
2023-05-14T16:24:38.635Z,99595.06
2023-05-14T16:26:40.422Z,99594.69
2023-05-14T16:28:42.750Z,99595.53
2023-05-14T16:30:44.258Z,99598.13
2023-05-14T16:32:49.401Z,99603.44
2023-05-14T16:34:51.282Z,99602.88
2023-05-14T16:36:53.069Z,99596.50
2023-05-14T16:39:06.844Z,99590.31
2023-05-14T16:41:11.737Z,99594.63
2023-05-14T16:43:13.249Z,99592.75
2023-05-14T16:45:14.818Z,99588.44
2023-05-14T16:47:16.479Z,99587.63
2023-05-14T16:49:22.234Z,99582.22
2023-05-14T16:51:23.857Z,99596.91
2023-05-14T16:53:25.809Z,99594.81
2023-05-14T16:55:27.477Z,99597.41
2023-05-14T16:57:29.036Z,99603.13
2023-05-14T16:59:30.678Z,99605.97
2023-05-14T17:01:32.298Z,99599.22
2023-05-14T17:03:33.936Z,99602.00
2023-05-14T17:05:35.808Z,99592.16
2023-05-14T17:07:38.587Z,99599.34
2023-05-14T17:09:40.274Z,99596.22
2023-05-14T17:11:41.808Z,99596.91
2023-05-14T17:13:43.379Z,99601.28
2023-05-14T17:15:44.956Z,99599.38
2023-05-14T17:17:46.522Z,99600.88
2023-05-14T17:19:48.076Z,99599.09
2023-05-14T17:21:49.921Z,99600.06
2023-05-14T17:23:51.477Z,99594.41
2023-05-14T17:25:53.055Z,99594.09
2023-05-14T17:27:54.619Z,99603.47
2023-05-14T17:29:56.289Z,99601.66
2023-05-14T17:31:58.183Z,99598.53
2023-05-14T17:33:59.953Z,99602.31
2023-05-14T17:36:03.559Z,99594.34
2023-05-14T17:38:05.299Z,99591.88
2023-05-14T17:40:07.397Z,99594.31
2023-05-14T17:42:09.195Z,99596.00
2023-05-14T17:44:12.897Z,99594.00
2023-05-14T17:46:14.881Z,99598.13
2023-05-14T17:48:16.544Z,99603.56
2023-05-14T17:50:18.807Z,99607.63
2023-05-14T17:52:20.775Z,99603.16
2023-05-14T17:54:22.333Z,99605.75
2023-05-14T17:56:23.919Z,99603.66
2023-05-14T17:58:26.323Z,99601.63
2023-05-14T18:00:27.899Z,99605.50
2023-05-14T18:02:29.571Z,99609.09
2023-05-14T18:04:31.284Z,99609.22
2023-05-14T18:06:32.935Z,99607.34
2023-05-14T18:08:34.543Z,99611.38
2023-05-14T18:10:36.326Z,99613.31
2023-05-14T18:12:38.120Z,99617.91
2023-05-14T18:14:39.661Z,99617.75
2023-05-14T18:16:41.261Z,99615.53
2023-05-14T18:18:42.879Z,99620.72
2023-05-14T18:20:44.424Z,99622.00
2023-05-14T18:22:46.123Z,99615.69
2023-05-14T18:24:47.764Z,99617.13
2023-05-14T18:26:49.427Z,99620.47
2023-05-14T18:28:51.895Z,99608.63
2023-05-14T18:30:53.571Z,99613.22
2023-05-14T18:32:55.580Z,99612.81
2023-05-14T18:34:57.291Z,99613.56
2023-05-14T18:36:58.932Z,99612.22
2023-05-14T18:39:00.971Z,99604.56
2023-05-14T18:41:03.232Z,99606.75
2023-05-14T18:43:05.205Z,99607.91
2023-05-14T18:45:07.529Z,99611.44
2023-05-14T18:47:09.719Z,99612.28
2023-05-14T18:49:11.288Z,99603.88
2023-05-14T18:51:13.095Z,99612.16
2023-05-14T18:53:15.420Z,99608.97
2023-05-14T18:55:17.168Z,99612.22
2023-05-14T18:57:18.754Z,99615.97
2023-05-14T18:59:20.333Z,99610.94
2023-05-14T19:01:24.401Z,99615.50
2023-05-14T19:03:26.202Z,99618.47
2023-05-14T19:05:32.458Z,99615.03
2023-05-14T19:07:33.966Z,99614.78
2023-05-14T19:09:35.513Z,99620.19
2023-05-14T19:11:37.072Z,99614.03
2023-05-14T19:13:39.270Z,99614.59
2023-05-14T19:15:41.235Z,99615.41
2023-05-14T19:17:43.102Z,99614.09
2023-05-14T19:19:44.669Z,99615.16
2023-05-14T19:21:46.170Z,99616.25
2023-05-14T19:23:47.723Z,99622.66
2023-05-14T19:25:49.291Z,99617.56
2023-05-14T19:27:51.217Z,99621.31
2023-05-14T19:29:52.782Z,99619.44
2023-05-14T19:31:54.429Z,99620.00
2023-05-14T19:33:56.063Z,99617.06
2023-05-14T19:35:57.786Z,99621.09
2023-05-14T19:37:59.355Z,99622.41
2023-05-14T19:40:01.047Z,99615.72
2023-05-14T19:42:02.640Z,99621.88
2023-05-14T19:44:04.187Z,99621.06
2023-05-14T19:46:06.461Z,99623.69
2023-05-14T19:48:08.920Z,99630.56
2023-05-14T19:50:11.248Z,99627.91
2023-05-14T19:52:12.894Z,99627.63
2023-05-14T19:54:14.720Z,99625.75
2023-05-14T19:56:16.588Z,99627.34
2023-05-14T19:58:18.192Z,99631.31
2023-05-14T20:00:19.852Z,99622.75
2023-05-14T20:02:21.542Z,99622.75
2023-05-14T20:04:23.246Z,99621.16
2023-05-14T20:06:24.853Z,99626.75
2023-05-14T20:08:26.471Z,99621.94
2023-05-14T20:10:28.594Z,99617.09
2023-05-14T20:12:30.199Z,99628.28
2023-05-14T20:14:31.815Z,99622.94
2023-05-14T20:16:33.584Z,99618.91
2023-05-14T20:18:35.170Z,99623.97
2023-05-14T20:20:36.811Z,99629.28
2023-05-14T20:22:38.652Z,99622.59
2023-05-14T20:24:41.245Z,99626.31
2023-05-14T20:26:42.791Z,99619.63
2023-05-14T20:28:44.484Z,99629.50
2023-05-14T20:30:46.117Z,99623.34
2023-05-14T20:32:47.783Z,99626.78
2023-05-14T20:34:49.361Z,99623.03
2023-05-14T20:36:51.885Z,99620.06
2023-05-14T20:38:53.478Z,99622.97
2023-05-14T20:40:55.050Z,99621.09
2023-05-14T20:42:56.558Z,99621.56
2023-05-14T20:44:58.056Z,99616.16
2023-05-14T20:46:59.709Z,99619.88
2023-05-14T20:49:02.123Z,99623.28
2023-05-14T20:51:06.449Z,99622.47
2023-05-14T20:53:08.081Z,99624.84
2023-05-14T20:55:09.958Z,99624.28
2023-05-14T20:57:12.404Z,99622.88
2023-05-14T20:59:13.912Z,99622.84
2023-05-14T21:01:15.496Z,99616.44
2023-05-14T21:03:17.308Z,99619.38
2023-05-14T21:05:19.103Z,99617.19
2023-05-14T21:07:20.616Z,99607.84
2023-05-14T21:09:23.693Z,99604.88
2023-05-14T21:11:25.650Z,99600.84
2023-05-14T21:13:27.158Z,99598.97
2023-05-14T21:15:30.600Z,99604.00
2023-05-14T21:17:32.469Z,99594.63
2023-05-14T21:19:34.040Z,99604.44
2023-05-14T21:21:35.566Z,99592.47
2023-05-14T21:23:37.144Z,99595.34
2023-05-14T21:25:38.696Z,99591.59
2023-05-14T21:27:40.341Z,99591.28
2023-05-14T21:29:41.938Z,99594.69
2023-05-14T21:31:43.629Z,99591.75
2023-05-14T21:33:45.287Z,99586.69
2023-05-14T21:35:46.931Z,99583.72
2023-05-14T21:37:48.523Z,99581.00
2023-05-14T21:39:50.022Z,99584.72
2023-05-14T21:41:51.789Z,99588.88
2023-05-14T21:43:53.355Z,99585.13
2023-05-14T21:45:55.825Z,99582.34
2023-05-14T21:47:57.487Z,99584.25
2023-05-14T21:49:59.035Z,99581.50
2023-05-14T21:52:00.546Z,99576.13
2023-05-14T21:54:02.023Z,99572.94
2023-05-14T21:56:03.703Z,99576.09
2023-05-14T21:58:06.797Z,99573.94
2023-05-14T22:00:12.907Z,99581.34
2023-05-14T22:02:14.625Z,99581.28
2023-05-14T22:04:16.613Z,99576.44
2023-05-14T22:06:18.282Z,99575.09
2023-05-14T22:08:19.892Z,99581.72
2023-05-14T22:10:21.416Z,99580.28
2023-05-14T22:12:22.960Z,99583.19
2023-05-14T22:14:26.474Z,99577.81
2023-05-14T22:16:28.090Z,99577.81
2023-05-14T22:18:29.739Z,99581.75
2023-05-14T22:20:31.353Z,99582.25
2023-05-14T22:22:36.507Z,99582.53
2023-05-14T22:24:38.025Z,99580.81
2023-05-14T22:26:39.591Z,99578.91
2023-05-14T22:28:42.983Z,99575.06
2023-05-14T22:30:44.615Z,99579.25
2023-05-14T22:32:46.316Z,99570.66
2023-05-14T22:34:47.866Z,99562.16
2023-05-14T22:36:49.414Z,99559.16
2023-05-14T22:38:50.946Z,99565.22
2023-05-14T22:40:52.513Z,99560.94
2023-05-14T22:42:54.079Z,99556.38
2023-05-14T22:44:55.618Z,99552.50
2023-05-14T22:46:57.330Z,99554.75
2023-05-14T22:49:00.058Z,99554.19
2023-05-14T22:51:01.571Z,99551.22
2023-05-14T22:53:03.128Z,99556.19
2023-05-14T22:55:04.955Z,99547.91
2023-05-14T22:57:06.755Z,99551.06
2023-05-14T22:59:08.250Z,99545.97
2023-05-14T23:01:09.772Z,99549.34
2023-05-14T23:03:11.398Z,99546.13
2023-05-14T23:05:12.994Z,99537.53
2023-05-14T23:07:15.289Z,99539.59
2023-05-14T23:09:16.842Z,99533.19
2023-05-14T23:11:18.372Z,99533.66
2023-05-14T23:13:20.056Z,99533.59
2023-05-14T23:15:21.873Z,99536.97
2023-05-14T23:17:23.454Z,99535.81
2023-05-14T23:19:25.155Z,99541.84
2023-05-14T23:21:26.872Z,99535.97
2023-05-14T23:23:28.455Z,99530.56
2023-05-14T23:25:30.027Z,99539.00
2023-05-14T23:27:31.591Z,99538.94
2023-05-14T23:29:33.143Z,99535.72
2023-05-14T23:31:35.340Z,99533.53
2023-05-14T23:33:37.038Z,99531.59
2023-05-14T23:35:39.256Z,99531.59
2023-05-14T23:37:46.940Z,99534.72
2023-05-14T23:39:48.722Z,99528.06
2023-05-14T23:41:50.260Z,99529.56
2023-05-14T23:43:51.838Z,99518.16
2023-05-14T23:45:53.508Z,99522.44
2023-05-14T23:48:00.695Z,99514.94
2023-05-14T23:50:02.884Z,99514.84
2023-05-14T23:52:04.769Z,99512.69
2023-05-14T23:54:06.298Z,99505.69
2023-05-14T23:56:08.291Z,99500.06
2023-05-14T23:58:09.968Z,99505.00
